Time;durP1;ratioP1;P1;durP2;ratioP2;P2;SDS_P1;SDS_P2;PMS_P1;PMS_P2;Temp;Humidity;BMP_temperature;BMP_pressure;BME280_temperature;BME280_humidity;BME280_pressure;Samples;Min_cycle;Max_cycle;Signal;HPM_P1;HPM_P2
2023/10/14 00:00:26;;;;;;;;;;;;;;;;;;5052703;28;880;-71
2023/10/14 00:02:52;;;;;;;;;;;;;;;;;;5036770;28;1391;-71
2023/10/14 00:05:19;;;;;;;;;;;;;;;;;;5052248;28;845;-71
2023/10/14 00:07:45;;;;;;;;;;;;;;;;;;5052600;28;1042;-71
2023/10/14 00:10:10;;;;;;;;;;;;;;;;;;5052356;28;912;-71
2023/10/14 00:12:37;;;;;;;;;;;;;;;;;;5050410;28;1456;-71
2023/10/14 00:15:05;;;;;;;;;;;;;;;;;;5051281;28;1898;-70
2023/10/14 00:17:35;;;;;;;;;;;;;;;;;;5050752;28;926;-70
2023/10/14 00:20:01;;;;;;;;;;;;;;;;;;5052457;28;873;-70
2023/10/14 00:22:29;;;;;;;;;;;;;;;;;;5052032;28;1067;-70
2023/10/14 00:24:56;;;;;;;;;;;;;;;;;;5052664;28;892;-71
2023/10/14 00:27:23;;;;;;;;;;;;;;;;;;5051710;28;794;-70
2023/10/14 00:29:50;;;;;;;;;;;;;;;;;;5052111;28;1093;-70
2023/10/14 00:32:15;;;;;;;;;;;;;;;;;;5051647;28;920;-71
2023/10/14 00:34:42;;;;;;;;;;;;;;;;;;5050387;28;1874;-71
2023/10/14 00:37:08;;;;;;;;;;;;;;;;;;5051683;28;841;-71
2023/10/14 00:39:33;;;;;;;;;;;;;;;;;;5033662;28;1203;-71
2023/10/14 00:41:59;;;;;;;;;;;;;;;;;;5050848;28;849;-72
2023/10/14 00:44:24;;;;;;;;;;;;;;;;;;5066499;28;1187;-71
2023/10/14 00:46:50;;;;;;;;;;;;;;;;;;5052321;28;888;-71
2023/10/14 00:49:22;;;;;;;;;;;;;;;;;;5051872;28;810;-71
2023/10/14 00:51:49;;;;;;;;;;;;;;;;;;5050530;28;1339;-70
2023/10/14 00:54:27;;;;;;;;;;;;;;;;;;5051640;28;1891;-70
2023/10/14 00:56:53;;;;;;;;;;;;;;;;;;5050568;28;1105;-70
2023/10/14 00:59:19;;;;;;;;;;;;;;;;;;5051902;28;877;-71
2023/10/14 01:01:58;;;;;;;;;;;;;;;;;;5050512;28;1168;-70
2023/10/14 01:04:32;;;;;;;;;;;;;;;;;;5050148;28;1226;-71
2023/10/14 01:07:13;;;;;;;;;;;;;;;;;;5052025;28;989;-69
2023/10/14 01:12:44;;;;;;;;;;;;;;;;;;5051766;28;714;-70
2023/10/14 01:14:58;;;;;;;;;;;;;;;;;;5049923;28;1945;-71
2023/10/14 01:17:30;;;;;;;;;;;;;;;;;;5049844;28;871;-70
2023/10/14 01:20:00;;;;;;;;;;;;;;;;;;5051654;28;1176;-70
2023/10/14 01:22:30;;;;;;;;;;;;;;;;;;5050805;28;933;-70
2023/10/14 01:24:55;;;;;;;;;;;;;;;;;;5050273;28;861;-70
2023/10/14 01:27:21;;;;;;;;;;;;;;;;;;5050900;28;865;-70
2023/10/14 01:29:50;;;;;;;;;;;;;;;;;;5051063;28;865;-70
2023/10/14 01:35:23;;;;;;;;;;;;;;;;;;5051282;28;1973;-69
2023/10/14 01:37:49;;;;;;;;;;;;;;;;;;5051352;28;868;-70
2023/10/14 01:43:05;;;;;;;;;;;;;;;;;;5040189;28;1180;-69
2023/10/14 01:45:31;;;;;;;;;;;;;;;;;;5049913;28;1183;-69
2023/10/14 01:48:33;;;;;;;;;;;;;;;;;;5053856;28;837;-69
2023/10/14 01:50:54;;;;;;;;;;;;;;;;;;5054577;28;1167;-69
2023/10/14 01:53:23;;;;;;;;;;;;;;;;;;5055528;28;1202;-70
2023/10/14 01:55:52;;;;;;;;;;;;;;;;;;5055862;28;1961;-69
2023/10/14 01:58:32;;;;;;;;;;;;;;;;;;5054006;28;1309;-70
2023/10/14 02:03:43;;;;;;;;;;;;;;;;;;5054876;28;836;-70
2023/10/14 02:06:16;;;;;;;;;;;;;;;;;;5055660;28;874;-69
2023/10/14 02:08:42;;;;;;;;;;;;;;;;;;5054949;28;801;-69
2023/10/14 02:11:07;;;;;;;;;;;;;;;;;;5054351;28;1604;-69
2023/10/14 02:13:36;;;;;;;;;;;;;;;;;;5054782;28;867;-69
2023/10/14 02:16:07;;;;;;;;;;;;;;;;;;5055503;28;1949;-69
2023/10/14 02:18:36;;;;;;;;;;;;;;;;;;5054002;28;908;-70
2023/10/14 02:21:05;;;;;;;;;;;;;;;;;;5054539;28;829;-70
2023/10/14 02:23:47;;;;;;;;;;;;;;;;;;5052366;28;1511;-71
2023/10/14 02:26:31;;;;;;;;;;;;;;;;;;5053338;28;1270;-70
2023/10/14 02:28:57;;;;;;;;;;;;;;;;;;5053389;28;1254;-70
2023/10/14 02:33:54;;;;;;;;;;;;;;;;;;5054597;28;757;-70
2023/10/14 02:36:19;;;;;;;;;;;;;;;;;;5054572;28;1886;-69
2023/10/14 02:38:46;;;;;;;;;;;;;;;;;;5054047;28;868;-70
2023/10/14 02:41:15;;;;;;;;;;;;;;;;;;5054535;28;873;-69
2023/10/14 02:43:42;;;;;;;;;;;;;;;;;;5052226;28;1130;-70
2023/10/14 02:46:10;;;;;;;;;;;;;;;;;;5054586;28;889;-70
2023/10/14 02:49:02;;;;;;;;;;;;;;;;;;5053764;28;1013;-70
2023/10/14 02:54:26;;;;;;;;;;;;;;;;;;5048597;28;1910;-70
2023/10/14 02:59:21;;;;;;;;;;;;;;;;;;5053702;28;868;-71
2023/10/14 03:04:38;;;;;;;;;;;;;;;;;;5053291;28;638;-71
2023/10/14 03:07:04;;;;;;;;;;;;;;;;;;5053947;28;892;-71
2023/10/14 03:09:33;;;;;;;;;;;;;;;;;;5053137;28;963;-70
2023/10/14 03:11:59;;;;;;;;;;;;;;;;;;5053881;28;884;-70
2023/10/14 03:14:24;;;;;;;;;;;;;;;;;;5053908;28;1914;-70
2023/10/14 03:16:52;;;;;;;;;;;;;;;;;;5053008;28;912;-70
2023/10/14 03:19:18;;;;;;;;;;;;;;;;;;5053603;28;861;-70
2023/10/14 03:21:58;;;;;;;;;;;;;;;;;;5051670;28;1194;-70
2023/10/14 03:24:25;;;;;;;;;;;;;;;;;;5053639;28;884;-70
2023/10/14 03:26:57;;;;;;;;;;;;;;;;;;5051460;28;837;-70
2023/10/14 03:29:25;;;;;;;;;;;;;;;;;;5051567;28;1283;-71
2023/10/14 03:31:50;;;;;;;;;;;;;;;;;;5052166;28;829;-71
2023/10/14 03:34:17;;;;;;;;;;;;;;;;;;5053833;28;1898;-73
2023/10/14 03:36:43;;;;;;;;;;;;;;;;;;5052541;28;864;-71
2023/10/14 03:39:38;;;;;;;;;;;;;;;;;;5053138;28;845;-71
2023/10/14 03:42:10;;;;;;;;;;;;;;;;;;5052857;28;1093;-71
2023/10/14 03:44:36;;;;;;;;;;;;;;;;;;5051466;28;896;-70
2023/10/14 03:47:03;;;;;;;;;;;;;;;;;;5051913;28;1535;-71
2023/10/14 03:49:29;;;;;;;;;;;;;;;;;;5051430;28;1249;-70
2023/10/14 03:51:58;;;;;;;;;;;;;;;;;;5051786;28;978;-70
2023/10/14 03:54:26;;;;;;;;;;;;;;;;;;5051307;28;1910;-71
2023/10/14 03:56:51;;;;;;;;;;;;;;;;;;5052509;28;895;-70
2023/10/14 03:59:21;;;;;;;;;;;;;;;;;;5052937;28;963;-71
2023/10/14 04:01:47;;;;;;;;;;;;;;;;;;5052327;28;927;-70
2023/10/14 04:04:18;;;;;;;;;;;;;;;;;;5052882;28;813;-70
2023/10/14 04:07:32;;;;;;;;;;;;;;;;;;5052883;28;870;-69
2023/10/14 04:09:37;;;;;;;;;;;;;;;;;;5048439;28;1060;-70
2023/10/14 04:12:09;;;;;;;;;;;;;;;;;;5052678;28;884;-70
2023/10/14 04:14:38;;;;;;;;;;;;;;;;;;5052920;28;1906;-69
2023/10/14 04:17:10;;;;;;;;;;;;;;;;;;5053798;28;857;-71
2023/10/14 04:19:44;;;;;;;;;;;;;;;;;;5053244;28;954;-70
2023/10/14 04:22:38;;;;;;;;;;;;;;;;;;5052980;28;872;-71
2023/10/14 04:25:16;;;;;;;;;;;;;;;;;;5053338;28;880;-70
2023/10/14 04:27:45;;;;;;;;;;;;;;;;;;5052398;28;931;-70
2023/10/14 04:30:11;;;;;;;;;;;;;;;;;;5053558;28;853;-71
2023/10/14 04:32:47;;;;;;;;;;;;;;;;;;5052282;28;758;-70
2023/10/14 04:35:12;;;;;;;;;;;;;;;;;;5052556;28;1969;-68
2023/10/14 04:37:53;;;;;;;;;;;;;;;;;;5051720;28;841;-69
2023/10/14 04:40:53;;;;;;;;;;;;;;;;;;5052014;28;948;-69
2023/10/14 04:46:00;;;;;;;;;;;;;;;;;;5051404;28;792;-69
2023/10/14 04:48:35;;;;;;;;;;;;;;;;;;5050964;28;1411;-70
2023/10/14 04:51:15;;;;;;;;;;;;;;;;;;5051901;28;936;-70
2023/10/14 04:53:43;;;;;;;;;;;;;;;;;;5051207;28;1251;-70
2023/10/14 04:56:09;;;;;;;;;;;;;;;;;;5051862;28;1910;-69
2023/10/14 04:58:34;;;;;;;;;;;;;;;;;;5050127;28;1284;-70
2023/10/14 05:01:00;;;;;;;;;;;;;;;;;;5051530;28;888;-70
2023/10/14 05:03:28;;;;;;;;;;;;;;;;;;5052100;28;829;-69
2023/10/14 05:05:58;;;;;;;;;;;;;;;;;;5051392;28;1006;-69
2023/10/14 05:08:26;;;;;;;;;;;;;;;;;;5034826;28;1283;-70
2023/10/14 05:10:52;;;;;;;;;;;;;;;;;;5051078;28;832;-70
2023/10/14 05:13:19;;;;;;;;;;;;;;;;;;5051940;28;865;-70
2023/10/14 05:15:52;;;;;;;;;;;;;;;;;;5050705;28;1914;-70
2023/10/14 05:18:27;;;;;;;;;;;;;;;;;;5051785;28;821;-69
2023/10/14 05:23:24;;;;;;;;;;;;;;;;;;5051093;28;694;-69
2023/10/14 05:25:56;;;;;;;;;;;;;;;;;;5050586;28;905;-70
2023/10/14 05:28:22;;;;;;;;;;;;;;;;;;5049875;28;1424;-69
2023/10/14 05:30:48;;;;;;;;;;;;;;;;;;5050322;28;901;-69
2023/10/14 05:33:14;;;;;;;;;;;;;;;;;;5050324;28;857;-69
2023/10/14 05:35:42;;;;;;;;;;;;;;;;;;5050610;28;1897;-69
2023/10/14 05:38:10;;;;;;;;;;;;;;;;;;5051472;28;943;-69
2023/10/14 05:40:40;;;;;;;;;;;;;;;;;;5050585;28;885;-70
2023/10/14 05:43:08;;;;;;;;;;;;;;;;;;5050978;28;813;-72
2023/10/14 05:45:37;;;;;;;;;;;;;;;;;;5051344;28;944;-70
2023/10/14 05:48:07;;;;;;;;;;;;;;;;;;5049744;28;1491;-70
2023/10/14 05:50:35;;;;;;;;;;;;;;;;;;5050897;28;916;-70
2023/10/14 05:53:01;;;;;;;;;;;;;;;;;;5050782;28;1036;-70
2023/10/14 05:55:29;;;;;;;;;;;;;;;;;;5051373;28;1906;-70
2023/10/14 05:57:58;;;;;;;;;;;;;;;;;;5050424;28;933;-70
2023/10/14 06:00:25;;;;;;;;;;;;;;;;;;5049955;28;1317;-70
2023/10/14 06:02:53;;;;;;;;;;;;;;;;;;5050488;28;917;-69
2023/10/14 06:05:23;;;;;;;;;;;;;;;;;;5051653;28;907;-69
2023/10/14 06:07:48;;;;;;;;;;;;;;;;;;5049920;28;942;-69
2023/10/14 06:10:20;;;;;;;;;;;;;;;;;;5050746;28;892;-69
2023/10/14 06:12:45;;;;;;;;;;;;;;;;;;5051139;28;864;-69
2023/10/14 06:15:11;;;;;;;;;;;;;;;;;;5051547;28;1965;-70
2023/10/14 06:17:39;;;;;;;;;;;;;;;;;;5033114;28;1289;-70
2023/10/14 06:20:13;;;;;;;;;;;;;;;;;;5050343;28;832;-70
2023/10/14 06:22:39;;;;;;;;;;;;;;;;;;5051035;28;1193;-70
2023/10/14 06:25:06;;;;;;;;;;;;;;;;;;5051992;28;840;-70
2023/10/14 06:27:31;;;;;;;;;;;;;;;;;;5050893;28;951;-70
2023/10/14 06:29:57;;;;;;;;;;;;;;;;;;5049985;28;1218;-70
2023/10/14 06:32:23;;;;;;;;;;;;;;;;;;5051738;28;955;-70
2023/10/14 06:34:57;;;;;;;;;;;;;;;;;;5052318;28;1965;-71
2023/10/14 06:37:24;;;;;;;;;;;;;;;;;;5053425;28;908;-71
2023/10/14 06:39:50;;;;;;;;;;;;;;;;;;5052954;28;860;-71
2023/10/14 06:42:19;;;;;;;;;;;;;;;;;;5054543;28;916;-71
2023/10/14 06:44:45;;;;;;;;;;;;;;;;;;5052483;28;1398;-71
2023/10/14 06:47:10;;;;;;;;;;;;;;;;;;5054122;28;916;-71
2023/10/14 06:49:41;;;;;;;;;;;;;;;;;;5053699;28;900;-71
2023/10/14 06:52:07;;;;;;;;;;;;;;;;;;5053560;28;884;-71
2023/10/14 06:54:36;;;;;;;;;;;;;;;;;;5053772;28;1973;-71
2023/10/14 06:57:07;;;;;;;;;;;;;;;;;;5036192;28;1421;-71
2023/10/14 06:59:32;;;;;;;;;;;;;;;;;;5052411;28;1692;-71
2023/10/14 07:01:59;;;;;;;;;;;;;;;;;;5053063;28;923;-71
2023/10/14 07:04:25;;;;;;;;;;;;;;;;;;5054189;28;840;-71
2023/10/14 07:06:51;;;;;;;;;;;;;;;;;;5053381;28;1007;-71
2023/10/14 07:09:23;;;;;;;;;;;;;;;;;;5053897;28;810;-71
2023/10/14 07:11:48;;;;;;;;;;;;;;;;;;5053056;28;805;-71
2023/10/14 07:14:14;;;;;;;;;;;;;;;;;;5054023;28;990;-71
2023/10/14 07:16:40;;;;;;;;;;;;;;;;;;5053166;28;1971;-71
2023/10/14 07:19:05;;;;;;;;;;;;;;;;;;5052502;28;902;-71
2023/10/14 07:21:31;;;;;;;;;;;;;;;;;;5052814;28;1345;-71
2023/10/14 07:23:58;;;;;;;;;;;;;;;;;;5053035;28;860;-71
2023/10/14 07:26:29;;;;;;;;;;;;;;;;;;5054571;28;914;-71
2023/10/14 07:28:56;;;;;;;;;;;;;;;;;;5052274;28;1267;-71
2023/10/14 07:31:23;;;;;;;;;;;;;;;;;;5053601;28;864;-71
2023/10/14 07:33:48;;;;;;;;;;;;;;;;;;5053465;28;896;-71
2023/10/14 07:36:14;;;;;;;;;;;;;;;;;;5052645;28;1921;-71
2023/10/14 07:38:42;;;;;;;;;;;;;;;;;;5051459;28;1089;-71
2023/10/14 07:41:10;;;;;;;;;;;;;;;;;;5052273;28;1499;-70
2023/10/14 07:43:36;;;;;;;;;;;;;;;;;;5051774;28;1105;-71
2023/10/14 07:46:03;;;;;;;;;;;;;;;;;;5053554;28;829;-71
2023/10/14 07:48:29;;;;;;;;;;;;;;;;;;5053618;28;884;-71
2023/10/14 07:50:56;;;;;;;;;;;;;;;;;;5052577;28;845;-70
2023/10/14 07:53:22;;;;;;;;;;;;;;;;;;5051858;28;1073;-71
2023/10/14 07:55:48;;;;;;;;;;;;;;;;;;5051869;28;1914;-71
2023/10/14 07:58:14;;;;;;;;;;;;;;;;;;5052563;28;813;-71
2023/10/14 08:00:41;;;;;;;;;;;;;;;;;;5053317;28;1215;-71
2023/10/14 08:03:07;;;;;;;;;;;;;;;;;;5053421;28;883;-70
2023/10/14 08:05:38;;;;;;;;;;;;;;;;;;5053499;28;840;-71
2023/10/14 08:08:06;;;;;;;;;;;;;;;;;;5052341;28;1421;-71
2023/10/14 08:10:32;;;;;;;;;;;;;;;;;;5053914;28;1038;-71
2023/10/14 08:13:01;;;;;;;;;;;;;;;;;;5052106;28;1435;-71
2023/10/14 08:15:29;;;;;;;;;;;;;;;;;;5052741;28;1902;-71
2023/10/14 08:17:57;;;;;;;;;;;;;;;;;;5052560;28;873;-71
2023/10/14 08:20:22;;;;;;;;;;;;;;;;;;5051787;28;1409;-71
2023/10/14 08:22:48;;;;;;;;;;;;;;;;;;5051734;28;869;-71
2023/10/14 08:25:15;;;;;;;;;;;;;;;;;;5052694;28;845;-71
2023/10/14 08:27:40;;;;;;;;;;;;;;;;;;5051937;28;924;-71
2023/10/14 08:30:10;;;;;;;;;;;;;;;;;;5051059;28;1198;-71
2023/10/14 08:32:46;;;;;;;;;;;;;;;;;;5052709;28;828;-71
2023/10/14 08:35:15;;;;;;;;;;;;;;;;;;5050442;28;1906;-71
2023/10/14 08:37:42;;;;;;;;;;;;;;;;;;5050181;28;1315;-71
2023/10/14 08:40:07;;;;;;;;;;;;;;;;;;5052026;28;1086;-71
2023/10/14 08:42:35;;;;;;;;;;;;;;;;;;5033376;28;1304;-70
2023/10/14 08:45:04;;;;;;;;;;;;;;;;;;5051256;28;877;-71
2023/10/14 08:47:31;;;;;;;;;;;;;;;;;;5050962;28;838;-70
2023/10/14 08:49:57;;;;;;;;;;;;;;;;;;5051785;28;849;-70
2023/10/14 08:52:25;;;;;;;;;;;;;;;;;;5052041;28;841;-70
2023/10/14 08:54:52;;;;;;;;;;;;;;;;;;5050228;28;1917;-70
2023/10/14 08:57:17;;;;;;;;;;;;;;;;;;5050916;28;880;-70
2023/10/14 08:59:44;;;;;;;;;;;;;;;;;;5050355;28;1128;-70
2023/10/14 09:02:12;;;;;;;;;;;;;;;;;;5050205;28;1298;-69
2023/10/14 09:04:39;;;;;;;;;;;;;;;;;;5051372;28;849;-69
2023/10/14 09:07:12;;;;;;;;;;;;;;;;;;5052017;28;882;-69
2023/10/14 09:09:37;;;;;;;;;;;;;;;;;;5050412;28;1237;-69
2023/10/14 09:12:10;;;;;;;;;;;;;;;;;;5050575;28;943;-69
2023/10/14 09:14:37;;;;;;;;;;;;;;;;;;5051417;28;1961;-69
2023/10/14 09:17:05;;;;;;;;;;;;;;;;;;5050987;28;892;-69
2023/10/14 09:19:46;;;;;;;;;;;;;;;;;;5051965;28;932;-69
2023/10/14 09:22:25;;;;;;;;;;;;;;;;;;5051496;28;920;-69
2023/10/14 09:24:51;;;;;;;;;;;;;;;;;;5049624;28;1266;-70
2023/10/14 09:27:17;;;;;;;;;;;;;;;;;;5051373;28;884;-69
2023/10/14 09:29:43;;;;;;;;;;;;;;;;;;5050526;28;968;-69
2023/10/14 09:32:08;;;;;;;;;;;;;;;;;;5049814;28;873;-69
2023/10/14 09:34:33;;;;;;;;;;;;;;;;;;5050908;28;1963;-69
2023/10/14 09:37:10;;;;;;;;;;;;;;;;;;5050740;28;861;-69
2023/10/14 09:39:38;;;;;;;;;;;;;;;;;;5051140;28;869;-70
2023/10/14 09:42:05;;;;;;;;;;;;;;;;;;5033088;28;1046;-69
2023/10/14 09:44:31;;;;;;;;;;;;;;;;;;5050856;28;1000;-69
2023/10/14 09:46:58;;;;;;;;;;;;;;;;;;5051013;28;821;-71
2023/10/14 09:49:24;;;;;;;;;;;;;;;;;;5052267;28;825;-69
2023/10/14 09:51:51;;;;;;;;;;;;;;;;;;5051277;28;952;-70
2023/10/14 09:54:17;;;;;;;;;;;;;;;;;;5051255;28;1196;-71
2023/10/14 09:56:43;;;;;;;;;;;;;;;;;;5050393;28;1918;-70
2023/10/14 09:59:09;;;;;;;;;;;;;;;;;;5051893;28;916;-71
2023/10/14 10:01:35;;;;;;;;;;;;;;;;;;5051837;28;786;-71
2023/10/14 10:04:08;;;;;;;;;;;;;;;;;;5050205;28;1473;-70
2023/10/14 10:06:48;;;;;;;;;;;;;;;;;;5050892;28;972;-68
2023/10/14 10:09:24;;;;;;;;;;;;;;;;;;5051379;28;924;-68
2023/10/14 10:11:51;;;;;;;;;;;;;;;;;;5069716;28;1325;-68
2023/10/14 10:14:17;;;;;;;;;;;;;;;;;;5054395;28;1088;-69
2023/10/14 10:16:42;;;;;;;;;;;;;;;;;;5054146;28;1946;-69
2023/10/14 10:19:08;;;;;;;;;;;;;;;;;;5053517;28;881;-68
2023/10/14 10:21:43;;;;;;;;;;;;;;;;;;5054668;28;813;-69
2023/10/14 10:24:15;;;;;;;;;;;;;;;;;;5054978;28;857;-69
2023/10/14 10:26:59;;;;;;;;;;;;;;;;;;5053989;28;923;-69
2023/10/14 10:29:24;;;;;;;;;;;;;;;;;;5054549;28;932;-69
2023/10/14 10:32:12;;;;;;;;;;;;;;;;;;5053820;28;813;-69
2023/10/14 10:34:56;;;;;;;;;;;;;;;;;;5053903;28;1897;-69
2023/10/14 10:37:25;;;;;;;;;;;;;;;;;;5052235;28;912;-69
2023/10/14 10:39:52;;;;;;;;;;;;;;;;;;5052227;28;853;-69
2023/10/14 10:42:17;;;;;;;;;;;;;;;;;;5051274;28;1179;-69
2023/10/14 10:44:44;;;;;;;;;;;;;;;;;;5052335;28;892;-69
2023/10/14 10:47:12;;;;;;;;;;;;;;;;;;5051704;28;904;-68
2023/10/14 10:49:58;;;;;;;;;;;;;;;;;;5052574;28;1006;-69
2023/10/14 10:52:25;;;;;;;;;;;;;;;;;;5052756;28;1191;-69
2023/10/14 10:54:51;;;;;;;;;;;;;;;;;;5051860;28;2339;-69
2023/10/14 10:57:17;;;;;;;;;;;;;;;;;;5054314;28;919;-69
2023/10/14 10:59:42;;;;;;;;;;;;;;;;;;5052735;28;952;-69
2023/10/14 11:02:09;;;;;;;;;;;;;;;;;;5053951;28;898;-69
2023/10/14 11:04:34;;;;;;;;;;;;;;;;;;5054334;28;908;-69
2023/10/14 11:07:00;;;;;;;;;;;;;;;;;;5053420;28;1034;-69
2023/10/14 11:09:26;;;;;;;;;;;;;;;;;;5054339;28;891;-69
2023/10/14 11:12:00;;;;;;;;;;;;;;;;;;5051847;28;1209;-69
2023/10/14 11:14:26;;;;;;;;;;;;;;;;;;5053649;28;1906;-69
2023/10/14 11:16:54;;;;;;;;;;;;;;;;;;5053411;28;964;-69
2023/10/14 11:19:22;;;;;;;;;;;;;;;;;;5052159;28;1380;-69
2023/10/14 11:21:49;;;;;;;;;;;;;;;;;;5052194;28;912;-69
2023/10/14 11:24:15;;;;;;;;;;;;;;;;;;5053739;28;829;-69
2023/10/14 11:26:44;;;;;;;;;;;;;;;;;;5053290;28;931;-69
2023/10/14 11:29:10;;;;;;;;;;;;;;;;;;5052078;28;1639;-69
2023/10/14 11:31:36;;;;;;;;;;;;;;;;;;5052002;28;1065;-69
2023/10/14 11:34:02;;;;;;;;;;;;;;;;;;5035416;28;1579;-69
2023/10/14 11:36:27;;;;;;;;;;;;;;;;;;5053139;28;1971;-69
2023/10/14 11:38:58;;;;;;;;;;;;;;;;;;5052527;28;908;-69
2023/10/14 11:41:24;;;;;;;;;;;;;;;;;;5053814;28;933;-69
2023/10/14 11:43:50;;;;;;;;;;;;;;;;;;5053498;28;900;-69
2023/10/14 11:46:17;;;;;;;;;;;;;;;;;;5053562;28;837;-69
2023/10/14 11:48:48;;;;;;;;;;;;;;;;;;5053390;28;904;-69
2023/10/14 11:51:19;;;;;;;;;;;;;;;;;;5053837;28;860;-69
2023/10/14 11:53:46;;;;;;;;;;;;;;;;;;5052511;28;1342;-69
2023/10/14 11:56:13;;;;;;;;;;;;;;;;;;5053770;28;1973;-69
2023/10/14 11:58:40;;;;;;;;;;;;;;;;;;5051677;28;810;-70
2023/10/14 12:01:06;;;;;;;;;;;;;;;;;;5052989;28;1168;-69
2023/10/14 12:03:32;;;;;;;;;;;;;;;;;;5052589;28;972;-69
2023/10/14 12:05:58;;;;;;;;;;;;;;;;;;5052294;28;984;-69
2023/10/14 12:08:27;;;;;;;;;;;;;;;;;;5051666;28;1406;-69
2023/10/14 12:10:53;;;;;;;;;;;;;;;;;;5051037;28;932;-69
2023/10/14 12:13:19;;;;;;;;;;;;;;;;;;5052203;28;906;-70
2023/10/14 12:15:45;;;;;;;;;;;;;;;;;;5052029;28;1893;-69
2023/10/14 12:18:13;;;;;;;;;;;;;;;;;;5051955;28;1263;-70
2023/10/14 12:20:39;;;;;;;;;;;;;;;;;;5052368;28;861;-69
2023/10/14 12:23:04;;;;;;;;;;;;;;;;;;5050818;28;964;-69
2023/10/14 12:25:30;;;;;;;;;;;;;;;;;;5051011;28;830;-69
2023/10/14 12:27:55;;;;;;;;;;;;;;;;;;5050901;28;794;-69
2023/10/14 12:30:39;;;;;;;;;;;;;;;;;;5051083;28;889;-69
2023/10/14 12:33:05;;;;;;;;;;;;;;;;;;5049688;28;945;-69
2023/10/14 12:35:34;;;;;;;;;;;;;;;;;;5051756;28;1981;-69
2023/10/14 12:37:59;;;;;;;;;;;;;;;;;;5051471;28;857;-69
2023/10/14 12:40:29;;;;;;;;;;;;;;;;;;5051948;28;848;-69
2023/10/14 12:43:00;;;;;;;;;;;;;;;;;;5051760;28;919;-69
2023/10/14 12:45:25;;;;;;;;;;;;;;;;;;5051896;28;872;-69
2023/10/14 12:47:56;;;;;;;;;;;;;;;;;;5051217;28;955;-69
2023/10/14 12:50:21;;;;;;;;;;;;;;;;;;5051978;28;849;-69
2023/10/14 12:52:56;;;;;;;;;;;;;;;;;;5050742;28;2043;-70
2023/10/14 12:55:25;;;;;;;;;;;;;;;;;;5051244;28;1977;-69
2023/10/14 12:57:50;;;;;;;;;;;;;;;;;;5051012;28;1064;-70
2023/10/14 13:00:35;;;;;;;;;;;;;;;;;;5050337;28;1338;-69
2023/10/14 13:03:01;;;;;;;;;;;;;;;;;;5050179;28;1495;-69
2023/10/14 13:05:27;;;;;;;;;;;;;;;;;;5051799;28;876;-70
2023/10/14 13:07:53;;;;;;;;;;;;;;;;;;5051030;28;1004;-70
2023/10/14 13:10:22;;;;;;;;;;;;;;;;;;5033134;28;1179;-70
2023/10/14 13:12:51;;;;;;;;;;;;;;;;;;5049601;28;1349;-70
2023/10/14 13:15:25;;;;;;;;;;;;;;;;;;5051052;28;1959;-70
2023/10/14 13:18:00;;;;;;;;;;;;;;;;;;5051812;28;1136;-73
2023/10/14 13:20:29;;;;;;;;;;;;;;;;;;5060136;28;1227;-76
2023/10/14 13:22:55;;;;;;;;;;;;;;;;;;5070310;28;1180;-75
2023/10/14 13:25:24;;;;;;;;;;;;;;;;;;5054144;28;1207;-76
2023/10/14 13:27:51;;;;;;;;;;;;;;;;;;5053761;28;1159;-71
2023/10/14 13:30:17;;;;;;;;;;;;;;;;;;5067933;28;1144;-77
2023/10/14 13:32:42;;;;;;;;;;;;;;;;;;5057491;28;1251;-77
2023/10/14 13:35:08;;;;;;;;;;;;;;;;;;5051369;28;1969;-74
2023/10/14 13:37:33;;;;;;;;;;;;;;;;;;5050468;28;888;-75
2023/10/14 13:39:58;;;;;;;;;;;;;;;;;;5033953;28;1227;-76
2023/10/14 13:42:24;;;;;;;;;;;;;;;;;;5052412;28;853;-77
2023/10/14 13:44:49;;;;;;;;;;;;;;;;;;5050406;28;1397;-78
2023/10/14 13:47:17;;;;;;;;;;;;;;;;;;5052723;28;848;-76
2023/10/14 13:49:45;;;;;;;;;;;;;;;;;;5053024;28;920;-78
2023/10/14 13:52:14;;;;;;;;;;;;;;;;;;5052777;28;938;-79
2023/10/14 13:54:41;;;;;;;;;;;;;;;;;;5054650;28;1902;-78
2023/10/14 13:57:07;;;;;;;;;;;;;;;;;;5054245;28;794;-78
2023/10/14 13:59:33;;;;;;;;;;;;;;;;;;5053745;28;948;-70
2023/10/14 14:01:58;;;;;;;;;;;;;;;;;;5054382;28;896;-78
2023/10/14 14:04:23;;;;;;;;;;;;;;;;;;5058619;28;1059;-74
2023/10/14 14:06:49;;;;;;;;;;;;;;;;;;5050739;28;1358;-73
2023/10/14 14:09:14;;;;;;;;;;;;;;;;;;5051030;28;1203;-71
2023/10/14 14:11:40;;;;;;;;;;;;;;;;;;5050028;28;876;-71
2023/10/14 14:14:06;;;;;;;;;;;;;;;;;;5050428;28;805;-71
2023/10/14 14:16:31;;;;;;;;;;;;;;;;;;5050178;28;1953;-71
2023/10/14 14:19:00;;;;;;;;;;;;;;;;;;5050229;28;908;-71
2023/10/14 14:21:25;;;;;;;;;;;;;;;;;;5050780;28;848;-71
2023/10/14 14:23:52;;;;;;;;;;;;;;;;;;5048899;28;1396;-71
2023/10/14 14:26:18;;;;;;;;;;;;;;;;;;5050358;28;829;-71
2023/10/14 14:28:49;;;;;;;;;;;;;;;;;;5049606;28;1175;-71
2023/10/14 14:31:14;;;;;;;;;;;;;;;;;;5050839;28;836;-71
2023/10/14 14:33:42;;;;;;;;;;;;;;;;;;5049824;28;975;-71
2023/10/14 14:36:10;;;;;;;;;;;;;;;;;;5048518;28;1981;-71
2023/10/14 14:38:38;;;;;;;;;;;;;;;;;;5050035;28;861;-71
2023/10/14 14:41:03;;;;;;;;;;;;;;;;;;5049704;28;845;-71
2023/10/14 14:43:30;;;;;;;;;;;;;;;;;;5050787;28;852;-71
2023/10/14 14:45:57;;;;;;;;;;;;;;;;;;5048525;28;1266;-71
2023/10/14 14:48:23;;;;;;;;;;;;;;;;;;5047716;28;1258;-71
2023/10/14 14:50:49;;;;;;;;;;;;;;;;;;5048288;28;1141;-71
2023/10/14 14:53:14;;;;;;;;;;;;;;;;;;5049813;28;979;-71
2023/10/14 14:55:45;;;;;;;;;;;;;;;;;;5050759;28;1902;-71
2023/10/14 14:58:14;;;;;;;;;;;;;;;;;;5053690;28;880;-71
2023/10/14 15:00:42;;;;;;;;;;;;;;;;;;5053646;28;954;-71
2023/10/14 15:03:10;;;;;;;;;;;;;;;;;;5054165;28;825;-71
2023/10/14 15:05:37;;;;;;;;;;;;;;;;;;5052820;28;1218;-72
2023/10/14 15:08:04;;;;;;;;;;;;;;;;;;5054148;28;980;-72
2023/10/14 15:10:33;;;;;;;;;;;;;;;;;;5054690;28;840;-72
2023/10/14 15:12:59;;;;;;;;;;;;;;;;;;5053224;28;1207;-72
2023/10/14 15:15:26;;;;;;;;;;;;;;;;;;5054898;28;1902;-71
2023/10/14 15:17:53;;;;;;;;;;;;;;;;;;5053428;28;904;-71
2023/10/14 15:20:19;;;;;;;;;;;;;;;;;;5053287;28;1341;-71
2023/10/14 15:22:45;;;;;;;;;;;;;;;;;;5052324;28;1175;-71
2023/10/14 15:25:11;;;;;;;;;;;;;;;;;;5053062;28;1333;-71
2023/10/14 15:27:37;;;;;;;;;;;;;;;;;;5053282;28;864;-71
2023/10/14 15:30:11;;;;;;;;;;;;;;;;;;5053310;28;818;-70
2023/10/14 15:32:37;;;;;;;;;;;;;;;;;;5052061;28;1310;-70
2023/10/14 15:35:03;;;;;;;;;;;;;;;;;;5053102;28;1981;-71
2023/10/14 15:37:30;;;;;;;;;;;;;;;;;;5036463;28;1386;-70
2023/10/14 15:39:55;;;;;;;;;;;;;;;;;;5052708;28;1275;-69
2023/10/14 15:42:21;;;;;;;;;;;;;;;;;;5054044;28;872;-68
2023/10/14 15:44:49;;;;;;;;;;;;;;;;;;5052995;28;1074;-69
2023/10/14 15:47:14;;;;;;;;;;;;;;;;;;5053885;28;932;-70
2023/10/14 15:49:42;;;;;;;;;;;;;;;;;;5053312;28;845;-68
2023/10/14 15:52:09;;;;;;;;;;;;;;;;;;5052523;28;927;-69
2023/10/14 15:54:36;;;;;;;;;;;;;;;;;;5051785;28;2234;-70
2023/10/14 15:57:03;;;;;;;;;;;;;;;;;;5050853;28;1152;-69
2023/10/14 15:59:29;;;;;;;;;;;;;;;;;;5070091;28;1092;-69
2023/10/14 16:01:55;;;;;;;;;;;;;;;;;;5063789;28;1195;-69
2023/10/14 16:04:20;;;;;;;;;;;;;;;;;;5052654;28;900;-69
2023/10/14 16:06:46;;;;;;;;;;;;;;;;;;5052421;28;1030;-69
2023/10/14 16:09:12;;;;;;;;;;;;;;;;;;5052473;28;904;-68
2023/10/14 16:11:37;;;;;;;;;;;;;;;;;;5052528;28;900;-69
2023/10/14 16:14:03;;;;;;;;;;;;;;;;;;5051992;28;895;-69
2023/10/14 16:16:32;;;;;;;;;;;;;;;;;;5051388;28;1977;-69
2023/10/14 16:18:58;;;;;;;;;;;;;;;;;;5050377;28;1558;-70
2023/10/14 16:21:25;;;;;;;;;;;;;;;;;;5052518;28;887;-69
2023/10/14 16:23:50;;;;;;;;;;;;;;;;;;5051600;28;876;-69
2023/10/14 16:26:19;;;;;;;;;;;;;;;;;;5052231;28;911;-70
2023/10/14 16:28:48;;;;;;;;;;;;;;;;;;5050506;28;1207;-70
2023/10/14 16:31:13;;;;;;;;;;;;;;;;;;5052506;28;832;-70
2023/10/14 16:33:40;;;;;;;;;;;;;;;;;;5050712;28;876;-70
2023/10/14 16:36:05;;;;;;;;;;;;;;;;;;5051645;28;1972;-69
2023/10/14 16:38:31;;;;;;;;;;;;;;;;;;5052200;28;892;-68
2023/10/14 16:40:57;;;;;;;;;;;;;;;;;;5051751;28;872;-69
2023/10/14 16:43:24;;;;;;;;;;;;;;;;;;5050984;28;1148;-69
2023/10/14 16:45:51;;;;;;;;;;;;;;;;;;5051107;28;1492;-69
2023/10/14 16:48:16;;;;;;;;;;;;;;;;;;5053148;28;852;-69
2023/10/14 16:50:43;;;;;;;;;;;;;;;;;;5052540;28;1077;-69
2023/10/14 16:53:08;;;;;;;;;;;;;;;;;;5034900;28;1098;-70
2023/10/14 16:55:36;;;;;;;;;;;;;;;;;;5052114;28;1898;-69
2023/10/14 16:58:01;;;;;;;;;;;;;;;;;;5052665;28;898;-68
2023/10/14 17:00:31;;;;;;;;;;;;;;;;;;5052558;28;1027;-69
2023/10/14 17:02:57;;;;;;;;;;;;;;;;;;5052207;28;873;-68
2023/10/14 17:05:23;;;;;;;;;;;;;;;;;;5052072;28;936;-69
2023/10/14 17:07:49;;;;;;;;;;;;;;;;;;5050482;28;1814;-69
2023/10/14 17:10:15;;;;;;;;;;;;;;;;;;5052693;28;889;-69
2023/10/14 17:12:42;;;;;;;;;;;;;;;;;;5053300;28;817;-69
2023/10/14 17:15:09;;;;;;;;;;;;;;;;;;5050790;28;1906;-70
2023/10/14 17:17:37;;;;;;;;;;;;;;;;;;5052223;28;892;-69
2023/10/14 17:20:11;;;;;;;;;;;;;;;;;;5051811;28;766;-69
2023/10/14 17:22:40;;;;;;;;;;;;;;;;;;5052539;28;809;-69
2023/10/14 17:25:06;;;;;;;;;;;;;;;;;;5050167;28;928;-69
2023/10/14 17:27:32;;;;;;;;;;;;;;;;;;5050206;28;814;-69
2023/10/14 17:29:57;;;;;;;;;;;;;;;;;;5051162;28;770;-69
2023/10/14 17:32:24;;;;;;;;;;;;;;;;;;5050682;28;1318;-67
2023/10/14 17:34:49;;;;;;;;;;;;;;;;;;5050960;28;1890;-68
2023/10/14 17:37:14;;;;;;;;;;;;;;;;;;5050407;28;1015;-68
2023/10/14 17:39:39;;;;;;;;;;;;;;;;;;5049736;28;845;-68
2023/10/14 17:42:06;;;;;;;;;;;;;;;;;;5050266;28;1011;-67
2023/10/14 17:44:32;;;;;;;;;;;;;;;;;;5051431;28;900;-68
2023/10/14 17:46:57;;;;;;;;;;;;;;;;;;5032182;28;1309;-68